<?xml version="1.0" encoding="utf-8"?>
<gpx xmlns:xsi="http://www.w3.org/2001/XMLSchema-instance" xmlns:xsd="http://www.w3.org/2001/XMLSchema" version="1.1" creator="Shapelink.com" xmlns="http://www.topografix.com/GPX/1/1" xmlns:gpxtpx="http://www.garmin.com/xmlschemas/TrackPointExtension/v1">
  <metadata>
    <name>Övrigt 2.68 km, 2020-06-20</name>
    <desc></desc>
    <author><name>Marian Moron</name></author> 
    <time>2020-06-20T20:07:50Z</time>
  </metadata>
  <trk>
    <name>Övrigt 2.68 km, 2020-06-20</name>
    <trkseg>
      <trkpt lat="51.229958726274" lon="4.458629161622">
        <ele>4.8</ele>
        <time>2020-06-20T20:07:50Z</time>
      </trkpt>
      <trkpt lat="51.230033325184" lon="4.458940549207">
        <ele>4.6</ele>
        <time>2020-06-20T20:08:11Z</time>
      </trkpt>
      <trkpt lat="51.230372875953" lon="4.459023781474">
        <ele>9.8</ele>
        <time>2020-06-20T20:09:17Z</time>
      </trkpt>
      <trkpt lat="51.230422161525" lon="4.459040209998">
        <ele>9.8</ele>
        <time>2020-06-20T20:09:20Z</time>
      </trkpt>
      <trkpt lat="51.2305164579" lon="4.459203824686">
        <ele>8.4</ele>
        <time>2020-06-20T20:09:31Z</time>
      </trkpt>
      <trkpt lat="51.230560798151" lon="4.459398452404">
        <ele>4.8</ele>
        <time>2020-06-20T20:09:47Z</time>
      </trkpt>
      <trkpt lat="51.230591224448" lon="4.459902791327">
        <ele>0</ele>
        <time>2020-06-20T20:11:28Z</time>
      </trkpt>
      <trkpt lat="51.230620477279" lon="4.460173107602">
        <ele>0</ele>
        <time>2020-06-20T20:12:07Z</time>
      </trkpt>
      <trkpt lat="51.230651909404" lon="4.460741903336">
        <ele>0</ele>
        <time>2020-06-20T20:12:46Z</time>
      </trkpt>
      <trkpt lat="51.23020381303" lon="4.460793954935">
        <ele>0.8</ele>
        <time>2020-06-20T20:13:18Z</time>
      </trkpt>
      <trkpt lat="51.229754794647" lon="4.460883389808">
        <ele>1.8</ele>
        <time>2020-06-20T20:13:42Z</time>
      </trkpt>
      <trkpt lat="51.229471905522" lon="4.460876432831">
        <ele>1.8</ele>
        <time>2020-06-20T20:13:55Z</time>
      </trkpt>
      <trkpt lat="51.229461344328" lon="4.460848940199">
        <ele>1.2</ele>
        <time>2020-06-20T20:13:57Z</time>
      </trkpt>
      <trkpt lat="51.229136629522" lon="4.460619024682">
        <ele>6</ele>
        <time>2020-06-20T20:14:27Z</time>
      </trkpt>
      <trkpt lat="51.229017187447" lon="4.460656491775">
        <ele>7.2</ele>
        <time>2020-06-20T20:14:35Z</time>
      </trkpt>
      <trkpt lat="51.228891458947" lon="4.460801498645">
        <ele>19.8</ele>
        <time>2020-06-20T20:14:53Z</time>
      </trkpt>
      <trkpt lat="51.228745949163" lon="4.460495391657">
        <ele>57.4</ele>
        <time>2020-06-20T20:15:19Z</time>
      </trkpt>
      <trkpt lat="51.228712337744" lon="4.460460606772">
        <ele>61.2</ele>
        <time>2020-06-20T20:15:23Z</time>
      </trkpt>
      <trkpt lat="51.228633296427" lon="4.460391372278">
        <ele>67.4</ele>
        <time>2020-06-20T20:15:31Z</time>
      </trkpt>
      <trkpt lat="51.228416624312" lon="4.460358096135">
        <ele>51</ele>
        <time>2020-06-20T20:15:42Z</time>
      </trkpt>
      <trkpt lat="51.228346886904" lon="4.459659883865">
        <ele>10.2</ele>
        <time>2020-06-20T20:16:08Z</time>
      </trkpt>
      <trkpt lat="51.228447972618" lon="4.459373809618">
        <ele>3.2</ele>
        <time>2020-06-20T20:16:22Z</time>
      </trkpt>
      <trkpt lat="51.228507903203" lon="4.459095111443">
        <ele>4.8</ele>
        <time>2020-06-20T20:16:40Z</time>
      </trkpt>
      <trkpt lat="51.228533467998" lon="4.458493374842">
        <ele>12.4</ele>
        <time>2020-06-20T20:17:08Z</time>
      </trkpt>
      <trkpt lat="51.228526175745" lon="4.458432773705">
        <ele>13.8</ele>
        <time>2020-06-20T20:17:13Z</time>
      </trkpt>
      <trkpt lat="51.228548806875" lon="4.458278798202">
        <ele>9.8</ele>
        <time>2020-06-20T20:17:24Z</time>
      </trkpt>
      <trkpt lat="51.228994807774" lon="4.458150555132">
        <ele>7</ele>
        <time>2020-06-20T20:18:01Z</time>
      </trkpt>
      <trkpt lat="51.22909404947" lon="4.458088109977">
        <ele>9</ele>
        <time>2020-06-20T20:18:10Z</time>
      </trkpt>
      <trkpt lat="51.22954248112" lon="4.457962297658">
        <ele>3.8</ele>
        <time>2020-06-20T20:18:37Z</time>
      </trkpt>
      <trkpt lat="51.229607357026" lon="4.457836317701">
        <ele>1.8</ele>
        <time>2020-06-20T20:19:05Z</time>
      </trkpt>
      <trkpt lat="51.229277026347" lon="4.458066652313">
        <ele>0.8</ele>
        <time>2020-06-20T20:19:36Z</time>
      </trkpt>
      <trkpt lat="51.229047194649" lon="4.458135132436">
        <ele>8.4</ele>
        <time>2020-06-20T20:20:02Z</time>
      </trkpt>
      <trkpt lat="51.228595829334" lon="4.458261950583">
        <ele>7.4</ele>
        <time>2020-06-20T20:20:32Z</time>
      </trkpt>
      <trkpt lat="51.228577640611" lon="4.458313415449">
        <ele>6.4</ele>
        <time>2020-06-20T20:20:35Z</time>
      </trkpt>
      <trkpt lat="51.228631703866" lon="4.45862094736">
        <ele>4.4</ele>
        <time>2020-06-20T20:20:55Z</time>
      </trkpt>
      <trkpt lat="51.228621477948" lon="4.458735947028">
        <ele>8.8</ele>
        <time>2020-06-20T20:21:03Z</time>
      </trkpt>
      <trkpt lat="51.22864561782" lon="4.459121598247">
        <ele>15.4</ele>
        <time>2020-06-20T20:21:21Z</time>
      </trkpt>
      <trkpt lat="51.228496000905" lon="4.459523510352">
        <ele>16.8</ele>
        <time>2020-06-20T20:21:45Z</time>
      </trkpt>
      <trkpt lat="51.228463814409" lon="4.459590146457">
        <ele>14.6</ele>
        <time>2020-06-20T20:21:49Z</time>
      </trkpt>
      <trkpt lat="51.228427939877" lon="4.460278468085">
        <ele>4.4</ele>
        <time>2020-06-20T20:22:19Z</time>
      </trkpt>
      <trkpt lat="51.228523158261" lon="4.460536546786">
        <ele>15.6</ele>
        <time>2020-06-20T20:22:51Z</time>
      </trkpt>
      <trkpt lat="51.228850639094" lon="4.460447614827">
        <ele>48.4</ele>
        <time>2020-06-20T20:23:10Z</time>
      </trkpt>
      <trkpt lat="51.229306614454" lon="4.460482483531">
        <ele>0</ele>
        <time>2020-06-20T20:23:53Z</time>
      </trkpt>
      <trkpt lat="51.22938406321" lon="4.460530679456">
        <ele>0</ele>
        <time>2020-06-20T20:24:01Z</time>
      </trkpt>
      <trkpt lat="51.229399318268" lon="4.460568733282">
        <ele>0</ele>
        <time>2020-06-20T20:24:04Z</time>
      </trkpt>
      <trkpt lat="51.229452459514" lon="4.4608136524">
        <ele>0.8</ele>
        <time>2020-06-20T20:24:20Z</time>
      </trkpt>
      <trkpt lat="51.229506774226" lon="4.460911217716">
        <ele>3.6</ele>
        <time>2020-06-20T20:24:28Z</time>
      </trkpt>
      <trkpt lat="51.229660833548" lon="4.461079274811">
        <ele>4</ele>
        <time>2020-06-20T20:24:47Z</time>
      </trkpt>
      <trkpt lat="51.229748005308" lon="4.461098469362">
        <ele>4.8</ele>
        <time>2020-06-20T20:24:56Z</time>
      </trkpt>
      <trkpt lat="51.229862837338" lon="4.461439612692">
        <ele>7</ele>
        <time>2020-06-20T20:25:30Z</time>
      </trkpt>
      <trkpt lat="51.230060063445" lon="4.462084516078">
        <ele>6</ele>
        <time>2020-06-20T20:26:16Z</time>
      </trkpt>
      <trkpt lat="51.230137009287" lon="4.462398502052">
        <ele>2.2</ele>
        <time>2020-06-20T20:26:40Z</time>
      </trkpt>
      <trkpt lat="51.230297355034" lon="4.463071065708">
        <ele>5.6</ele>
        <time>2020-06-20T20:27:32Z</time>
      </trkpt>
      <trkpt lat="51.230312945368" lon="4.46310945481">
        <ele>5.6</ele>
        <time>2020-06-20T20:27:35Z</time>
      </trkpt>
      <trkpt lat="51.230367595356" lon="4.463403743319">
        <ele>6.6</ele>
        <time>2020-06-20T20:28:14Z</time>
      </trkpt>
      <trkpt lat="51.230380587301" lon="4.463561406858">
        <ele>7.2</ele>
        <time>2020-06-20T20:28:25Z</time>
      </trkpt>
      <trkpt lat="51.230265252357" lon="4.463993996717">
        <ele>1.8</ele>
        <time>2020-06-20T20:29:02Z</time>
      </trkpt>
      <trkpt lat="51.230182439185" lon="4.464071194016">
        <ele>1.2</ele>
        <time>2020-06-20T20:29:16Z</time>
      </trkpt>
      <trkpt lat="51.229775414121" lon="4.464231875039">
        <ele>13</ele>
        <time>2020-06-20T20:30:08Z</time>
      </trkpt>
      <trkpt lat="51.229549354278" lon="4.46422592389">
        <ele>19.6</ele>
        <time>2020-06-20T20:30:29Z</time>
      </trkpt>
      <trkpt lat="51.229110058899" lon="4.464394651537">
        <ele>8.8</ele>
        <time>2020-06-20T20:31:37Z</time>
      </trkpt>
      <trkpt lat="51.228758941108" lon="4.464573186007">
        <ele>9.2</ele>
        <time>2020-06-20T20:33:15Z</time>
      </trkpt>
      <trkpt lat="51.228761455678" lon="4.464605540141">
        <ele>10</ele>
        <time>2020-06-20T20:33:17Z</time>
      </trkpt>
      <trkpt lat="51.228746284439" lon="4.465317582546">
        <ele>10.4</ele>
        <time>2020-06-20T20:34:07Z</time>
      </trkpt>
      <trkpt lat="51.228506729737" lon="4.465891826515">
        <ele>0.8</ele>
        <time>2020-06-20T20:34:56Z</time>
      </trkpt>
      <trkpt lat="51.228438836347" lon="4.465946057408">
        <ele>0.2</ele>
        <time>2020-06-20T20:35:10Z</time>
      </trkpt>
      <trkpt lat="51.228302295196" lon="4.466153844709">
        <ele>0</ele>
        <time>2020-06-20T20:35:31Z</time>
      </trkpt>
      <trkpt lat="51.227952099414" lon="4.466283847978">
        <ele>7.2</ele>
        <time>2020-06-20T20:36:04Z</time>
      </trkpt>
      <trkpt lat="51.227912033932" lon="4.466252164396">
        <ele>8</ele>
        <time>2020-06-20T20:36:10Z</time>
      </trkpt>
      <trkpt lat="51.227881859092" lon="4.466128447552">
        <ele>7.4</ele>
        <time>2020-06-20T20:36:20Z</time>
      </trkpt>
      <trkpt lat="51.227956541821" lon="4.465777665037">
        <ele>14.4</ele>
        <time>2020-06-20T20:37:01Z</time>
      </trkpt>
      <trkpt lat="51.227869621518" lon="4.465358486218">
        <ele>11.6</ele>
        <time>2020-06-20T20:37:34Z</time>
      </trkpt>
      <trkpt lat="51.227929384465" lon="4.465019186906">
        <ele>19.8</ele>
        <time>2020-06-20T20:38:02Z</time>
      </trkpt>
      <trkpt lat="51.227841206877" lon="4.464467909343">
        <ele>10.8</ele>
        <time>2020-06-20T20:38:40Z</time>
      </trkpt>
      <trkpt lat="51.227923684773" lon="4.463793585488">
        <ele>23.4</ele>
        <time>2020-06-20T20:39:28Z</time>
      </trkpt>
      <trkpt lat="51.227948830473" lon="4.463669114273">
        <ele>25.8</ele>
        <time>2020-06-20T20:39:39Z</time>
      </trkpt>
      <trkpt lat="51.227860317609" lon="4.463420004205">
        <ele>17.8</ele>
        <time>2020-06-20T20:40:05Z</time>
      </trkpt>
      <trkpt lat="51.227754118936" lon="4.463162931332">
        <ele>12.2</ele>
        <time>2020-06-20T20:40:28Z</time>
      </trkpt>
      <trkpt lat="51.227667701547" lon="4.462840479639">
        <ele>6.6</ele>
        <time>2020-06-20T20:40:54Z</time>
      </trkpt>
      <trkpt lat="51.227599724338" lon="4.462637889116">
        <ele>5.6</ele>
        <time>2020-06-20T20:41:16Z</time>
      </trkpt>
      <trkpt lat="51.227573488991" lon="4.462508891675">
        <ele>6.2</ele>
        <time>2020-06-20T20:41:26Z</time>
      </trkpt>
      <trkpt lat="51.227520683021" lon="4.462209406388">
        <ele>7.4</ele>
        <time>2020-06-20T20:41:50Z</time>
      </trkpt>
      <trkpt lat="51.227484305575" lon="4.461842195349">
        <ele>12.2</ele>
        <time>2020-06-20T20:42:28Z</time>
      </trkpt>
      <trkpt lat="51.227488831801" lon="4.46174488149">
        <ele>12</ele>
        <time>2020-06-20T20:42:36Z</time>
      </trkpt>
      <trkpt lat="51.227377939264" lon="4.46138278341">
        <ele>5.6</ele>
        <time>2020-06-20T20:42:57Z</time>
      </trkpt>
      <trkpt lat="51.227352039193" lon="4.461154879549">
        <ele>2.2</ele>
        <time>2020-06-20T20:43:18Z</time>
      </trkpt>
      <trkpt lat="51.227412975606" lon="4.460827817811">
        <ele>0.2</ele>
        <time>2020-06-20T20:43:41Z</time>
      </trkpt>
      <trkpt lat="51.227645405693" lon="4.460659760716">
        <ele>11.8</ele>
        <time>2020-06-20T20:44:17Z</time>
      </trkpt>
      <trkpt lat="51.227689662125" lon="4.460647187866">
        <ele>11.8</ele>
        <time>2020-06-20T20:44:21Z</time>
      </trkpt>
      <trkpt lat="51.228071709127" lon="4.46040964482">
        <ele>9.8</ele>
        <time>2020-06-20T20:45:17Z</time>
      </trkpt>
      <trkpt lat="51.228344539972" lon="4.459876053066">
        <ele>4</ele>
        <time>2020-06-20T20:46:00Z</time>
      </trkpt>
      <trkpt lat="51.228468843549" lon="4.459233831888">
        <ele>9.2</ele>
        <time>2020-06-20T20:46:44Z</time>
      </trkpt>
      <trkpt lat="51.228509914859" lon="4.458706107464">
        <ele>10.2</ele>
        <time>2020-06-20T20:47:32Z</time>
      </trkpt>
      <trkpt lat="51.228676211755" lon="4.45830830249">
        <ele>9.6</ele>
        <time>2020-06-20T20:48:44Z</time>
      </trkpt>
      <trkpt lat="51.229110394175" lon="4.458121553758">
        <ele>20.2</ele>
        <time>2020-06-20T20:49:31Z</time>
      </trkpt>
      <trkpt lat="51.229507193321" lon="4.457974619051">
        <ele>15</ele>
        <time>2020-06-20T20:50:13Z</time>
      </trkpt>
      <trkpt lat="51.229645494671" lon="4.457935559397">
        <ele>19.8</ele>
        <time>2020-06-20T20:50:31Z</time>
      </trkpt>
      <trkpt lat="51.229680866289" lon="4.457901612702">
        <ele>29.8</ele>
        <time>2020-06-20T20:51:00Z</time>
      </trkpt>
    </trkseg>
  </trk>
</gpx>